createdAt,value
2018-07-20T00:02:12.391Z,21.24
2018-07-20T00:04:40.885Z,21.30
2018-07-20T00:07:09.374Z,21.29
2018-07-20T00:09:37.969Z,21.28
2018-07-20T00:12:06.714Z,21.28
2018-07-20T00:14:35.343Z,21.24
2018-07-20T00:17:04.117Z,21.22
2018-07-20T00:19:32.758Z,21.14
2018-07-20T00:22:01.434Z,21.03
2018-07-20T00:24:29.911Z,20.88
2018-07-20T00:26:58.539Z,20.79
2018-07-20T00:29:27.066Z,20.72
2018-07-20T00:31:55.633Z,20.60
2018-07-20T00:34:24.117Z,20.51
2018-07-20T00:36:52.570Z,20.45
2018-07-20T00:39:21.081Z,20.41
2018-07-20T00:41:49.559Z,20.31
2018-07-20T00:44:18.200Z,20.27
2018-07-20T00:46:46.837Z,20.20
2018-07-20T00:49:15.308Z,20.10
2018-07-20T00:51:43.778Z,20.03
2018-07-20T00:54:12.241Z,20.04
2018-07-20T00:56:40.798Z,19.99
2018-07-20T00:59:10.383Z,20.00
2018-07-20T01:01:38.976Z,19.96
2018-07-20T01:04:07.474Z,19.94
2018-07-20T01:06:35.960Z,20.02
2018-07-20T01:09:07.693Z,20.13
2018-07-20T01:11:36.184Z,20.24
2018-07-20T01:14:04.772Z,20.36
2018-07-20T01:16:33.353Z,20.40
2018-07-20T01:19:01.827Z,20.50
2018-07-20T01:21:30.310Z,20.52
2018-07-20T01:23:59.006Z,20.46
2018-07-20T01:26:27.498Z,20.40
2018-07-20T01:28:56.090Z,20.35
2018-07-20T01:31:24.665Z,20.29
2018-07-20T01:33:53.258Z,20.29
2018-07-20T01:36:21.814Z,20.21
2018-07-20T01:38:50.262Z,20.13
2018-07-20T01:41:18.791Z,20.05
2018-07-20T01:43:47.408Z,20.00
2018-07-20T01:46:16.062Z,19.99
2018-07-20T01:48:44.546Z,19.99
2018-07-20T01:51:13.081Z,19.94
2018-07-20T01:53:41.589Z,19.97
2018-07-20T02:02:42.527Z,19.79
2018-07-20T02:05:11.118Z,19.72
2018-07-20T02:07:39.626Z,19.69
2018-07-20T02:10:08.520Z,19.58
2018-07-20T02:12:37.074Z,19.51
2018-07-20T02:15:06.053Z,19.50
2018-07-20T02:17:34.667Z,19.56
2018-07-20T02:20:03.674Z,19.59
2018-07-20T02:22:32.227Z,19.61
2018-07-20T02:25:00.859Z,19.63
2018-07-20T02:27:29.374Z,19.68
2018-07-20T02:29:57.810Z,19.75
2018-07-20T02:32:26.551Z,19.76
2018-07-20T02:34:55.222Z,19.74
2018-07-20T02:37:23.690Z,19.73
2018-07-20T02:39:52.165Z,19.69
2018-07-20T02:42:20.885Z,19.68
2018-07-20T02:44:49.563Z,19.71
2018-07-20T02:47:18.042Z,19.69
2018-07-20T02:49:46.632Z,19.68
2018-07-20T02:52:15.198Z,19.73
2018-07-20T02:54:43.685Z,19.82
2018-07-20T02:57:12.254Z,19.81
2018-07-20T02:59:40.775Z,19.79
2018-07-20T03:02:09.350Z,19.82
2018-07-20T03:04:37.961Z,19.85
2018-07-20T03:07:06.962Z,19.84
2018-07-20T03:09:35.796Z,19.82
2018-07-20T03:12:04.407Z,19.80
2018-07-20T03:14:32.964Z,19.69
2018-07-20T03:17:01.480Z,19.57
2018-07-20T03:19:30.042Z,19.47
2018-07-20T03:21:58.799Z,19.42
2018-07-20T03:24:27.266Z,19.36
2018-07-20T03:26:55.794Z,19.29
2018-07-20T03:29:24.245Z,19.19
2018-07-20T03:31:52.731Z,19.14
2018-07-20T03:34:21.237Z,19.10
2018-07-20T03:36:49.709Z,19.19
2018-07-20T03:39:18.746Z,19.20
2018-07-20T03:41:47.390Z,19.17
2018-07-20T03:44:15.838Z,19.11
2018-07-20T03:46:44.429Z,19.09
2018-07-20T03:49:13.005Z,19.06
2018-07-20T03:51:41.485Z,19.04
2018-07-20T03:54:09.993Z,19.05
2018-07-20T03:56:38.734Z,19.09
2018-07-20T03:59:07.337Z,19.24
2018-07-20T04:01:35.839Z,19.42
2018-07-20T04:06:31.920Z,19.68
2018-07-20T04:09:01.230Z,19.74
2018-07-20T04:11:30.006Z,19.74
2018-07-20T04:13:58.581Z,19.79
2018-07-20T04:16:27.113Z,19.86
2018-07-20T04:18:55.750Z,19.94
2018-07-20T04:21:24.462Z,20.08
2018-07-20T04:23:53.013Z,20.07
2018-07-20T04:26:21.706Z,20.08
2018-07-20T04:28:50.759Z,20.12
2018-07-20T04:31:19.451Z,20.20
2018-07-20T04:33:48.129Z,20.15
2018-07-20T04:36:18.608Z,20.11
2018-07-20T04:38:47.466Z,20.03
2018-07-20T04:41:16.623Z,19.90
2018-07-20T04:43:45.245Z,19.85
2018-07-20T04:46:13.723Z,19.86
2018-07-20T04:48:42.306Z,19.83
2018-07-20T04:51:11.022Z,19.81
2018-07-20T04:53:39.842Z,19.83
2018-07-20T04:56:08.402Z,19.93
2018-07-20T04:58:37.237Z,20.03
2018-07-20T05:01:06.100Z,20.06
2018-07-20T05:03:34.637Z,20.11
2018-07-20T05:06:03.111Z,20.11
2018-07-20T05:08:31.779Z,20.14
2018-07-20T05:11:00.311Z,20.21
2018-07-20T05:13:28.750Z,20.31
2018-07-20T05:15:57.326Z,20.48
2018-07-20T05:18:26.069Z,20.67
2018-07-20T05:20:54.558Z,20.87
2018-07-20T05:23:23.240Z,21.04
2018-07-20T05:25:51.824Z,21.25
2018-07-20T05:28:20.450Z,21.43
2018-07-20T05:30:49.111Z,21.57
2018-07-20T05:33:17.694Z,21.81
2018-07-20T05:35:46.659Z,21.98
2018-07-20T05:38:15.213Z,22.07
2018-07-20T05:40:43.794Z,22.18
2018-07-20T05:43:12.297Z,22.37
2018-07-20T05:45:40.793Z,22.52
2018-07-20T05:48:09.665Z,22.69
2018-07-20T05:50:42.457Z,22.71
2018-07-20T05:53:10.933Z,22.73
2018-07-20T05:55:39.463Z,22.71
2018-07-20T05:58:08.296Z,22.61
2018-07-20T06:00:37.375Z,22.49
2018-07-20T06:03:05.999Z,22.45
2018-07-20T06:05:34.599Z,22.43
2018-07-20T06:08:03.035Z,22.35
2018-07-20T06:10:31.691Z,22.31
2018-07-20T06:15:28.079Z,22.14
2018-07-20T06:17:56.734Z,22.32
2018-07-20T06:20:25.315Z,22.48
2018-07-20T06:22:53.821Z,22.85
2018-07-20T06:25:23.021Z,22.95
2018-07-20T06:27:51.563Z,23.09
2018-07-20T06:30:20.126Z,23.14
2018-07-20T06:32:48.804Z,23.20
2018-07-20T06:35:17.436Z,23.23
2018-07-20T06:37:46.006Z,23.15
2018-07-20T06:40:14.542Z,23.06
2018-07-20T06:42:43.140Z,22.86
2018-07-20T06:45:11.654Z,22.67
2018-07-20T06:47:40.239Z,22.62
2018-07-20T06:50:13.947Z,22.65
2018-07-20T06:52:42.560Z,22.66
2018-07-20T06:55:11.323Z,22.68
2018-07-20T06:57:39.932Z,22.69
2018-07-20T07:00:09.104Z,22.73
2018-07-20T07:02:37.765Z,22.84
2018-07-20T07:05:08.318Z,23.03
2018-07-20T07:07:36.904Z,23.15
2018-07-20T07:10:05.961Z,23.27
2018-07-20T07:12:34.587Z,23.42
2018-07-20T07:15:03.188Z,23.48
2018-07-20T07:17:31.716Z,23.51
2018-07-20T07:20:00.183Z,23.63
2018-07-20T07:22:28.851Z,23.78
2018-07-20T07:24:57.370Z,23.95
2018-07-20T07:27:25.949Z,24.13
2018-07-20T07:29:54.479Z,24.20
2018-07-20T07:32:23.064Z,24.08
2018-07-20T07:34:51.578Z,24.17
2018-07-20T07:37:20.067Z,24.34
2018-07-20T07:39:48.800Z,24.44
2018-07-20T07:42:17.691Z,24.56
2018-07-20T07:44:46.227Z,24.62
2018-07-20T07:47:14.764Z,24.69
2018-07-20T07:49:43.285Z,24.74
2018-07-20T07:52:11.850Z,24.89
2018-07-20T07:54:40.427Z,24.98
2018-07-20T07:57:09.003Z,25.06
2018-07-20T07:59:37.620Z,25.17
2018-07-20T08:02:06.502Z,25.38
2018-07-20T08:04:35.203Z,25.44
2018-07-20T08:07:03.806Z,25.78
2018-07-20T08:09:32.398Z,25.91
2018-07-20T08:12:01.173Z,26.18
2018-07-20T08:14:29.668Z,26.40
2018-07-20T08:16:58.289Z,26.60
2018-07-20T08:19:26.746Z,26.79
2018-07-20T08:21:55.282Z,26.76
2018-07-20T08:24:23.933Z,26.88
2018-07-20T08:26:52.530Z,27.03
2018-07-20T08:29:21.479Z,27.21
2018-07-20T08:31:50.051Z,27.09
2018-07-20T08:34:18.572Z,27.32
2018-07-20T08:36:47.215Z,27.63
2018-07-20T08:39:15.725Z,27.99
2018-07-20T08:41:44.185Z,28.21
2018-07-20T08:44:12.669Z,28.31
2018-07-20T08:46:41.292Z,28.68
2018-07-20T08:49:09.638Z,29.06
2018-07-20T08:51:38.244Z,29.35
2018-07-20T08:54:06.841Z,29.35
2018-07-20T08:56:35.350Z,29.57
2018-07-20T08:59:03.857Z,30.00
2018-07-20T09:01:32.548Z,30.35
2018-07-20T09:04:01.131Z,30.24
2018-07-20T09:06:29.650Z,29.91
2018-07-20T09:08:58.197Z,29.72
2018-07-20T09:11:26.678Z,29.63
2018-07-20T09:13:55.239Z,29.80
2018-07-20T09:16:23.751Z,30.17
2018-07-20T09:18:52.225Z,30.52
2018-07-20T09:21:20.737Z,30.81
2018-07-20T09:23:49.431Z,31.15
2018-07-20T09:26:17.962Z,31.73
2018-07-20T09:28:46.879Z,31.95
2018-07-20T09:31:15.607Z,32.46
2018-07-20T09:33:44.242Z,32.85
2018-07-20T09:36:12.860Z,33.09
2018-07-20T09:38:41.831Z,33.07
2018-07-20T09:41:10.361Z,32.87
2018-07-20T09:43:39.090Z,32.22
2018-07-20T09:46:07.775Z,32.78
2018-07-20T09:48:36.550Z,33.55
2018-07-20T09:51:05.236Z,33.56
2018-07-20T09:53:33.735Z,33.91
2018-07-20T09:56:06.950Z,33.83
2018-07-20T09:58:35.617Z,34.17
2018-07-20T10:01:04.259Z,34.06
2018-07-20T10:03:32.926Z,34.60
2018-07-20T10:06:01.618Z,35.45
2018-07-20T10:08:30.109Z,35.73
2018-07-20T10:10:58.634Z,36.04
2018-07-20T10:13:27.134Z,35.42
2018-07-20T10:15:55.750Z,35.47
2018-07-20T10:18:24.266Z,35.75
2018-07-20T10:20:52.756Z,35.90
2018-07-20T10:23:21.266Z,35.97
2018-07-20T10:25:49.881Z,35.47
2018-07-20T10:28:18.597Z,34.98
2018-07-20T10:30:47.302Z,35.33
2018-07-20T10:33:15.844Z,35.52
2018-07-20T10:35:44.362Z,35.85
2018-07-20T10:38:12.814Z,35.49
2018-07-20T10:40:41.313Z,35.68
2018-07-20T10:43:09.850Z,35.78
2018-07-20T10:45:38.537Z,36.15
2018-07-20T10:48:07.076Z,36.72
2018-07-20T10:50:35.559Z,36.50
2018-07-20T10:53:04.118Z,36.95
2018-07-20T10:55:32.684Z,36.79
2018-07-20T10:58:01.165Z,37.39
2018-07-20T11:00:29.718Z,36.91
2018-07-20T11:02:58.303Z,37.90
2018-07-20T11:05:26.863Z,37.94
2018-07-20T11:07:55.493Z,38.01
2018-07-20T11:10:24.187Z,38.06
2018-07-20T11:12:52.781Z,38.90
2018-07-20T11:15:21.405Z,38.29
2018-07-20T11:17:50.889Z,38.60
2018-07-20T11:20:19.433Z,38.64
2018-07-20T11:22:47.949Z,38.67
2018-07-20T11:25:16.449Z,39.20
2018-07-20T11:27:45.052Z,38.16
2018-07-20T11:30:13.632Z,39.06
2018-07-20T11:32:42.077Z,38.92
2018-07-20T11:35:10.802Z,39.67
2018-07-20T11:37:39.265Z,40.51
2018-07-20T11:40:07.787Z,40.67
2018-07-20T11:42:36.503Z,40.73
2018-07-20T11:45:05.275Z,41.63
2018-07-20T11:47:33.824Z,40.74
2018-07-20T11:50:02.442Z,41.17
2018-07-20T11:52:31.068Z,41.48
2018-07-20T11:54:59.646Z,42.41
2018-07-20T11:57:28.174Z,42.26
2018-07-20T11:59:56.762Z,42.13
2018-07-20T12:02:25.832Z,42.18
2018-07-20T12:04:54.637Z,43.03
2018-07-20T12:07:23.210Z,43.59
2018-07-20T12:09:51.923Z,43.66
2018-07-20T12:12:20.733Z,43.95
2018-07-20T12:14:51.604Z,42.24
2018-07-20T12:17:20.141Z,40.12
2018-07-20T12:19:49.027Z,38.30
2018-07-20T12:22:17.827Z,37.20
2018-07-20T12:24:46.410Z,36.21
2018-07-20T12:27:15.136Z,35.55
2018-07-20T12:29:43.946Z,34.65
2018-07-20T12:32:12.433Z,34.19
2018-07-20T12:34:41.061Z,34.59
2018-07-20T12:37:09.577Z,35.07
2018-07-20T12:39:42.570Z,36.49
2018-07-20T12:42:11.099Z,36.15
2018-07-20T12:44:39.646Z,36.08
2018-07-20T12:47:08.133Z,33.18
2018-07-20T12:49:36.595Z,32.65
2018-07-20T12:52:05.195Z,34.71
2018-07-20T12:54:33.686Z,35.80
2018-07-20T12:57:02.360Z,33.92
2018-07-20T12:59:30.930Z,31.90
2018-07-20T13:01:59.430Z,30.65
2018-07-20T13:04:27.857Z,30.01
2018-07-20T13:06:56.500Z,29.35
2018-07-20T13:09:25.057Z,29.47
2018-07-20T13:11:53.632Z,29.51
2018-07-20T13:14:22.261Z,29.34
2018-07-20T13:16:50.855Z,29.69
2018-07-20T13:19:19.447Z,29.70
2018-07-20T13:21:48.034Z,30.27
2018-07-20T13:24:16.725Z,32.31
2018-07-20T13:26:45.245Z,35.29
2018-07-20T13:29:13.787Z,34.19
2018-07-20T13:31:42.663Z,35.81
2018-07-20T13:34:11.466Z,36.37
2018-07-20T13:36:40.028Z,37.43
2018-07-20T13:41:40.312Z,34.94
2018-07-20T13:44:08.822Z,35.14
2018-07-20T13:46:37.366Z,36.32
2018-07-20T13:49:06.133Z,37.56
2018-07-20T13:51:36.664Z,38.87
2018-07-20T13:54:09.537Z,39.63
2018-07-20T13:56:38.162Z,39.58
2018-07-20T13:59:06.712Z,37.47
2018-07-20T14:01:35.407Z,36.95
2018-07-20T14:04:04.026Z,39.32
2018-07-20T14:06:32.529Z,39.77
2018-07-20T14:09:01.049Z,40.84
2018-07-20T14:11:29.643Z,41.35
2018-07-20T14:13:58.106Z,42.48
2018-07-20T14:16:26.649Z,42.95
2018-07-20T14:18:55.253Z,42.05
2018-07-20T14:21:23.723Z,39.08
2018-07-20T14:23:52.242Z,37.94
2018-07-20T14:26:20.806Z,36.48
2018-07-20T14:28:49.341Z,34.61
2018-07-20T14:31:17.867Z,33.57
2018-07-20T14:33:46.476Z,32.76
2018-07-20T14:36:15.039Z,32.40
2018-07-20T14:38:43.521Z,31.86
2018-07-20T14:41:11.988Z,31.52
2018-07-20T14:43:40.506Z,31.36
2018-07-20T14:46:09.145Z,31.06
2018-07-20T14:48:37.744Z,30.63
2018-07-20T14:51:06.302Z,30.41
2018-07-20T14:53:34.869Z,30.28
2018-07-20T14:56:03.423Z,29.72
2018-07-20T14:58:31.961Z,29.41
2018-07-20T15:01:00.485Z,29.27
2018-07-20T15:03:29.049Z,29.07
2018-07-20T15:05:57.542Z,28.80
2018-07-20T15:08:26.514Z,28.66
2018-07-20T15:10:55.222Z,28.66
2018-07-20T15:13:24.100Z,28.37
2018-07-20T15:15:52.614Z,28.32
2018-07-20T15:18:21.162Z,28.06
2018-07-20T15:20:49.809Z,27.82
2018-07-20T15:23:18.422Z,27.53
2018-07-20T15:25:47.174Z,27.35
2018-07-20T15:28:15.753Z,27.19
2018-07-20T15:30:44.354Z,26.98
2018-07-20T15:33:12.880Z,26.76
2018-07-20T15:35:41.791Z,26.53
2018-07-20T15:38:10.383Z,26.33
2018-07-20T15:40:39.035Z,26.21
2018-07-20T15:43:07.598Z,26.03
2018-07-20T15:45:36.533Z,25.85
2018-07-20T15:48:05.415Z,25.76
2018-07-20T15:50:34.073Z,25.64
2018-07-20T15:55:31.258Z,25.34
2018-07-20T15:57:59.823Z,25.36
2018-07-20T16:00:28.500Z,25.20
2018-07-20T16:02:57.177Z,24.87
2018-07-20T16:05:25.946Z,24.64
2018-07-20T16:07:54.574Z,24.42
2018-07-20T16:10:23.257Z,24.24
2018-07-20T16:12:51.757Z,23.94
2018-07-20T16:15:20.235Z,23.79
2018-07-20T16:17:48.849Z,23.41
2018-07-20T16:20:17.544Z,23.03
2018-07-20T16:22:46.270Z,22.63
2018-07-20T16:25:14.766Z,22.29
2018-07-20T16:27:43.367Z,21.91
2018-07-20T16:30:12.218Z,21.71
2018-07-20T16:32:40.734Z,21.59
2018-07-20T16:35:09.218Z,21.62
2018-07-20T16:37:38.849Z,21.75
2018-07-20T16:40:07.427Z,21.91
2018-07-20T16:42:36.026Z,22.15
2018-07-20T16:45:05.133Z,22.40
2018-07-20T16:47:33.697Z,22.46
2018-07-20T16:50:02.497Z,22.39
2018-07-20T16:52:32.145Z,22.29
2018-07-20T16:55:00.674Z,22.14
2018-07-20T16:57:29.273Z,22.10
2018-07-20T16:59:57.883Z,21.97
2018-07-20T17:02:26.563Z,21.87
2018-07-20T17:04:55.065Z,21.84
2018-07-20T17:07:23.837Z,21.81
2018-07-20T17:09:55.460Z,21.92
2018-07-20T17:12:24.062Z,21.93
2018-07-20T17:14:52.590Z,21.90
2018-07-20T17:17:21.089Z,21.95
2018-07-20T17:19:49.670Z,21.96
2018-07-20T17:22:18.202Z,21.93
2018-07-20T17:24:46.771Z,21.84
2018-07-20T17:27:15.357Z,21.95
2018-07-20T17:29:43.861Z,21.94
2018-07-20T17:32:12.434Z,21.82
2018-07-20T17:34:41.334Z,21.82
2018-07-20T17:37:09.881Z,21.93
2018-07-20T17:39:38.646Z,21.88
2018-07-20T17:42:07.314Z,21.86
2018-07-20T17:44:35.835Z,21.87
2018-07-20T17:47:04.419Z,21.83
2018-07-20T17:49:33.074Z,21.78
2018-07-20T17:52:01.764Z,21.81
2018-07-20T17:54:30.269Z,21.77
2018-07-20T17:56:58.830Z,21.82
2018-07-20T17:59:27.515Z,21.78
2018-07-20T18:01:56.047Z,21.81
2018-07-20T18:04:24.658Z,21.80
2018-07-20T18:06:53.141Z,21.82
2018-07-20T18:09:21.642Z,21.83
2018-07-20T18:11:50.433Z,21.79
2018-07-20T18:14:18.933Z,21.78
2018-07-20T18:16:47.511Z,21.74
2018-07-20T18:19:16.144Z,21.74
2018-07-20T18:21:44.665Z,21.79
2018-07-20T18:24:13.172Z,21.84
2018-07-20T18:26:41.726Z,21.92
2018-07-20T18:29:10.296Z,21.82
2018-07-20T18:31:38.833Z,21.77
2018-07-20T18:34:07.394Z,21.70
2018-07-20T18:36:36.071Z,21.65
2018-07-20T18:39:06.586Z,21.65
2018-07-20T18:41:35.106Z,21.68
2018-07-20T18:44:03.757Z,21.68
2018-07-20T18:46:32.417Z,21.65
2018-07-20T18:49:00.942Z,21.63
2018-07-20T18:51:29.434Z,21.60
2018-07-20T18:53:58.363Z,21.56
2018-07-20T18:56:27.010Z,21.60
2018-07-20T18:58:55.688Z,21.50
2018-07-20T19:01:24.225Z,21.44
2018-07-20T19:03:52.749Z,21.39
2018-07-20T19:06:21.230Z,21.37
2018-07-20T19:08:49.922Z,21.34
2018-07-20T19:11:18.454Z,21.31
2018-07-20T19:13:47.119Z,21.27
2018-07-20T19:16:15.662Z,21.30
2018-07-20T19:18:44.157Z,21.30
2018-07-20T19:21:12.714Z,21.27
2018-07-20T19:23:41.348Z,21.17
2018-07-20T19:26:09.829Z,20.84
2018-07-20T19:28:39.538Z,20.59
2018-07-20T19:31:08.169Z,20.57
2018-07-20T19:33:36.958Z,20.56
2018-07-20T19:36:05.440Z,20.55
2018-07-20T19:38:33.927Z,20.56
2018-07-20T19:41:02.438Z,20.63
2018-07-20T19:43:31.017Z,20.58
2018-07-20T19:45:59.691Z,20.51
2018-07-20T19:48:28.179Z,20.41
2018-07-20T19:50:56.816Z,20.48
2018-07-20T19:53:25.442Z,20.44
2018-07-20T19:55:53.928Z,20.34
2018-07-20T19:58:22.622Z,20.32
2018-07-20T20:00:51.245Z,20.26
2018-07-20T20:03:19.915Z,20.21
2018-07-20T20:05:48.648Z,20.09
2018-07-20T20:08:17.159Z,20.11
2018-07-20T20:10:45.724Z,20.00
2018-07-20T20:13:14.246Z,19.99
2018-07-20T20:15:43.266Z,19.87
2018-07-20T20:18:11.797Z,19.77
2018-07-20T20:20:40.570Z,19.76
2018-07-20T20:23:09.067Z,19.71
2018-07-20T20:25:37.604Z,19.76
2018-07-20T20:28:06.150Z,19.69
2018-07-20T20:30:34.798Z,19.61
2018-07-20T20:33:07.897Z,19.56
2018-07-20T20:35:36.435Z,19.53
2018-07-20T20:38:05.102Z,19.53
2018-07-20T20:40:33.757Z,19.55
2018-07-20T20:43:02.310Z,19.57
2018-07-20T20:45:30.829Z,19.55
2018-07-20T20:47:59.477Z,19.53
2018-07-20T20:50:28.103Z,19.57
2018-07-20T20:52:56.665Z,19.63
2018-07-20T20:55:25.212Z,19.66
2018-07-20T20:57:53.769Z,19.63
2018-07-20T21:00:22.417Z,19.62
2018-07-20T21:02:50.936Z,19.59
2018-07-20T21:05:19.559Z,19.56
2018-07-20T21:07:48.292Z,19.55
2018-07-20T21:10:16.834Z,19.55
2018-07-20T21:12:45.305Z,19.58
2018-07-20T21:15:13.789Z,19.54
2018-07-20T21:17:42.606Z,19.54
2018-07-20T21:20:11.145Z,19.52
2018-07-20T21:22:39.818Z,19.47
2018-07-20T21:25:08.433Z,19.45
2018-07-20T21:27:37.077Z,19.50
2018-07-20T21:30:05.923Z,19.43
2018-07-20T21:32:34.532Z,19.37
2018-07-20T21:35:03.219Z,19.37
2018-07-20T21:37:31.846Z,19.45
2018-07-20T21:40:00.361Z,19.43
2018-07-20T21:42:28.901Z,19.37
2018-07-20T21:44:57.489Z,19.31
2018-07-20T21:47:26.079Z,19.39
2018-07-20T21:49:54.602Z,19.42
2018-07-20T21:52:23.182Z,19.41
2018-07-20T21:54:51.917Z,19.40
2018-07-20T21:57:20.550Z,19.42
2018-07-20T21:59:49.133Z,19.40
2018-07-20T22:02:17.686Z,19.44
2018-07-20T22:04:46.482Z,19.36
2018-07-20T22:07:15.394Z,19.34
2018-07-20T22:09:43.915Z,19.32
2018-07-20T22:12:12.634Z,19.27
2018-07-20T22:14:41.440Z,19.33
2018-07-20T22:17:09.971Z,19.28
2018-07-20T22:19:38.638Z,19.25
2018-07-20T22:22:07.216Z,19.29
2018-07-20T22:24:35.730Z,19.32
2018-07-20T22:27:04.397Z,19.31
2018-07-20T22:29:33.098Z,19.38
2018-07-20T22:32:01.604Z,19.47
2018-07-20T22:34:30.122Z,19.45
2018-07-20T22:36:58.650Z,19.47
2018-07-20T22:39:27.286Z,19.38
2018-07-20T22:41:55.878Z,19.38
2018-07-20T22:44:24.411Z,19.36
2018-07-20T22:46:53.292Z,19.37
2018-07-20T22:49:22.374Z,19.39
2018-07-20T22:51:50.966Z,19.40
2018-07-20T22:54:19.444Z,19.53
2018-07-20T22:56:48.382Z,19.51
2018-07-20T22:59:16.918Z,19.45
2018-07-20T23:01:45.366Z,19.39
2018-07-20T23:04:13.880Z,19.33
2018-07-20T23:06:42.379Z,19.34
2018-07-20T23:09:11.558Z,19.28
2018-07-20T23:11:40.771Z,19.28
2018-07-20T23:14:09.339Z,19.28
2018-07-20T23:16:38.285Z,19.27
2018-07-20T23:19:07.782Z,19.33
2018-07-20T23:21:36.354Z,19.35
2018-07-20T23:24:05.067Z,19.39
2018-07-20T23:26:33.615Z,19.42
2018-07-20T23:29:02.388Z,19.44
2018-07-20T23:31:30.956Z,19.47
2018-07-20T23:33:59.426Z,19.49
2018-07-20T23:36:27.927Z,19.50
2018-07-20T23:38:56.399Z,19.49
2018-07-20T23:41:25.303Z,19.49
2018-07-20T23:43:53.773Z,19.46
2018-07-20T23:46:22.246Z,19.45
2018-07-20T23:48:53.634Z,19.42
2018-07-20T23:51:22.638Z,19.38
2018-07-20T23:53:51.229Z,19.32
2018-07-20T23:56:19.755Z,19.30
2018-07-20T23:58:48.371Z,19.30
